createdAt,value
2024-05-09T00:03:23.875Z,101791.30
2024-05-09T00:06:54.395Z,101793.48
2024-05-09T00:14:07.577Z,101789.24
2024-05-09T00:17:35.206Z,101785.58
2024-05-09T00:21:00.005Z,101781.41
2024-05-09T00:24:26.334Z,101777.86
2024-05-09T00:27:47.060Z,101770.84
2024-05-09T00:35:01.349Z,101771.39
2024-05-09T00:38:28.955Z,101773.27
2024-05-09T00:41:57.127Z,101770.42
2024-05-09T00:45:23.191Z,101775.75
2024-05-09T00:48:50.649Z,101781.06
2024-05-09T00:52:20.254Z,101782.23
2024-05-09T00:55:47.930Z,101783.61
2024-05-09T00:59:17.496Z,101785.03
2024-05-09T01:02:51.688Z,101781.87
2024-05-09T01:06:18.748Z,101785.61
2024-05-09T01:09:46.139Z,101786.75
2024-05-09T01:13:14.599Z,101789.94
2024-05-09T01:16:45.939Z,101784.45
2024-05-09T01:20:20.025Z,101780.20
2024-05-09T01:23:56.716Z,101780.08
2024-05-09T01:27:25.825Z,101774.05
2024-05-09T01:30:52.835Z,101777.20
2024-05-09T01:34:20.319Z,101780.34
2024-05-09T01:37:50.762Z,101776.89
2024-05-09T01:41:19.281Z,101775.00
2024-05-09T01:44:30.637Z,101779.86
2024-05-09T01:48:00.324Z,101784.38
2024-05-09T01:51:20.831Z,101782.30
2024-05-09T01:54:48.224Z,101784.56
2024-05-09T01:58:15.677Z,101778.85
2024-05-09T02:01:56.342Z,101772.96
2024-05-09T02:05:18.098Z,101768.46
2024-05-09T02:08:46.262Z,101767.94
2024-05-09T02:16:05.136Z,101756.65
2024-05-09T02:19:43.431Z,101756.83
2024-05-09T02:23:12.171Z,101770.19
2024-05-09T02:26:41.150Z,101772.27
2024-05-09T02:34:12.066Z,101785.30
2024-05-09T02:37:43.665Z,101787.56
2024-05-09T02:41:10.573Z,101784.26
2024-05-09T02:44:42.666Z,101784.80
2024-05-09T02:48:14.511Z,101786.52
2024-05-09T02:51:42.734Z,101783.94
2024-05-09T02:55:12.227Z,101781.16
2024-05-09T02:58:44.633Z,101774.56
2024-05-09T03:02:04.698Z,101770.39
2024-05-09T03:05:32.317Z,101763.11
2024-05-09T03:08:59.959Z,101760.84
2024-05-09T03:12:30.886Z,101762.58
2024-05-09T03:15:59.371Z,101768.34
2024-05-09T03:19:23.692Z,101769.02
2024-05-09T03:22:44.244Z,101765.02
2024-05-09T03:26:11.745Z,101757.73
2024-05-09T03:29:39.969Z,101754.25
2024-05-09T03:33:03.936Z,101758.77
2024-05-09T03:36:31.540Z,101764.85
2024-05-09T03:40:01.020Z,101769.52
2024-05-09T03:43:39.149Z,101771.77
2024-05-09T03:47:00.501Z,101763.09
2024-05-09T03:50:21.959Z,101760.83
2024-05-09T03:53:58.505Z,101770.91
2024-05-09T03:57:25.885Z,101770.90
2024-05-09T04:00:47.042Z,101768.45
2024-05-09T04:04:17.259Z,101772.09
2024-05-09T04:07:46.951Z,101772.96
2024-05-09T04:11:04.863Z,101780.41
2024-05-09T04:14:19.818Z,101774.49
2024-05-09T04:17:46.282Z,101774.48
2024-05-09T04:21:13.772Z,101774.45
2024-05-09T04:24:41.319Z,101770.25
2024-05-09T04:28:09.670Z,101776.66
2024-05-09T04:31:42.104Z,101783.59
2024-05-09T04:35:15.042Z,101791.89
2024-05-09T04:38:30.166Z,101786.12
2024-05-09T04:41:51.378Z,101790.05
2024-05-09T04:45:18.955Z,101784.98
2024-05-09T04:48:46.570Z,101775.19
2024-05-09T04:52:22.589Z,101778.77
2024-05-09T04:55:52.187Z,101780.02
2024-05-09T04:59:23.943Z,101774.36
2024-05-09T05:02:44.570Z,101776.39
2024-05-09T05:06:05.818Z,101779.63
2024-05-09T05:09:26.678Z,101778.86
2024-05-09T05:12:44.555Z,101783.50
2024-05-09T05:16:12.978Z,101780.45
2024-05-09T05:19:44.128Z,101781.65
2024-05-09T05:23:16.763Z,101785.39
2024-05-09T05:42:07.647Z,101800.75
2024-05-09T05:45:40.472Z,101797.98
2024-05-09T05:49:10.022Z,101793.20
2024-05-09T05:52:36.469Z,101802.49
2024-05-09T05:56:08.472Z,101800.92
2024-05-09T06:03:29.646Z,101804.92
2024-05-09T06:06:57.136Z,101805.45
2024-05-09T06:10:37.559Z,101802.41
2024-05-09T06:14:13.574Z,101800.90
2024-05-09T06:21:43.111Z,101801.14
2024-05-09T06:25:11.765Z,101788.42
2024-05-09T06:28:41.566Z,101779.04
2024-05-09T06:31:51.208Z,101775.75
2024-05-09T06:35:23.483Z,101777.61
2024-05-09T06:38:52.857Z,101774.69
2024-05-09T06:42:20.255Z,101764.25
2024-05-09T06:45:48.611Z,101763.39
2024-05-09T06:49:18.674Z,101762.88
2024-05-09T06:52:46.389Z,101761.48
2024-05-09T06:56:14.759Z,101754.59
2024-05-09T06:59:42.897Z,101747.39
2024-05-09T07:03:05.903Z,101753.20
2024-05-09T07:06:37.191Z,101744.48
2024-05-09T07:10:07.795Z,101742.93
2024-05-09T07:13:30.846Z,101740.16
2024-05-09T07:17:00.500Z,101735.67
2024-05-09T07:20:31.630Z,101734.42
2024-05-09T07:27:50.642Z,101720.00
2024-05-09T07:31:13.572Z,101710.27
2024-05-09T07:34:43.083Z,101709.22
2024-05-09T07:38:11.567Z,101715.32
2024-05-09T07:41:39.222Z,101720.95
2024-05-09T07:45:24.238Z,101721.86
2024-05-09T07:50:35.372Z,101717.23
2024-05-09T07:53:34.334Z,101710.83
2024-05-09T07:56:24.557Z,101712.59
2024-05-09T07:59:38.053Z,101711.82
2024-05-09T08:02:58.139Z,101706.92
2024-05-09T08:06:26.290Z,101701.58
2024-05-09T08:09:54.253Z,101706.09
2024-05-09T08:13:23.067Z,101703.98
2024-05-09T08:16:50.662Z,101703.88
2024-05-09T08:20:26.670Z,101695.14
2024-05-09T08:23:52.326Z,101693.40
2024-05-09T08:27:19.856Z,101688.94
2024-05-09T08:30:38.845Z,101683.65
2024-05-09T08:34:06.496Z,101683.55
2024-05-09T08:37:38.685Z,101682.21
2024-05-09T08:41:08.867Z,101680.59
2024-05-09T08:44:40.996Z,101682.90
2024-05-09T08:48:16.157Z,101677.34
2024-05-09T08:55:35.451Z,101677.27
2024-05-09T08:59:04.256Z,101679.13
2024-05-09T09:02:24.773Z,101678.11
2024-05-09T09:05:23.165Z,101677.53
2024-05-09T09:08:50.594Z,101669.88
2024-05-09T09:12:19.959Z,101665.24
2024-05-09T09:15:46.107Z,101657.91
2024-05-09T09:19:13.761Z,101657.58
2024-05-09T09:22:41.328Z,101661.05
2024-05-09T09:26:09.761Z,101663.53
2024-05-09T09:29:30.338Z,101660.16
2024-05-09T09:33:03.698Z,101658.78
2024-05-09T09:36:36.315Z,101657.50
2024-05-09T09:39:56.702Z,101658.73
2024-05-09T09:43:24.243Z,101652.52
2024-05-09T09:46:51.658Z,101649.20
2024-05-09T09:50:27.348Z,101642.50
2024-05-09T09:54:00.298Z,101637.75
2024-05-09T09:57:20.463Z,101635.84
2024-05-09T10:00:51.035Z,101630.30
2024-05-09T10:08:23.145Z,101639.09
2024-05-09T10:11:52.447Z,101638.58
2024-05-09T10:15:23.856Z,101633.09
2024-05-09T10:18:53.433Z,101631.88
2024-05-09T10:22:26.942Z,101627.09
2024-05-09T10:25:53.020Z,101618.90
2024-05-09T10:29:21.470Z,101617.12
2024-05-09T10:32:53.023Z,101611.16
2024-05-09T10:36:20.602Z,101598.92
2024-05-09T10:39:48.049Z,101592.54
2024-05-09T10:43:15.672Z,101592.66
2024-05-09T10:46:45.149Z,101578.55
2024-05-09T10:50:25.324Z,101574.23
2024-05-09T10:53:56.179Z,101572.33
2024-05-09T10:57:27.961Z,101573.95
2024-05-09T11:00:49.698Z,101567.91
2024-05-09T11:04:17.442Z,101561.08
2024-05-09T11:07:35.172Z,101559.49
2024-05-09T11:14:46.183Z,101558.27
2024-05-09T11:18:25.026Z,101555.25
2024-05-09T11:21:55.614Z,101551.91
2024-05-09T11:25:21.658Z,101546.44
2024-05-09T11:28:50.790Z,101547.17
2024-05-09T11:36:22.396Z,101544.56
2024-05-09T11:39:49.828Z,101545.64
2024-05-09T11:43:19.017Z,101544.91
2024-05-09T11:46:37.519Z,101541.39
2024-05-09T11:50:08.246Z,101538.85
2024-05-09T11:53:37.762Z,101533.06
2024-05-09T11:57:09.969Z,101528.77
2024-05-09T12:00:38.173Z,101528.42
2024-05-09T12:07:45.210Z,101519.40
2024-05-09T12:11:12.750Z,101516.23
2024-05-09T12:14:34.799Z,101510.89
2024-05-09T12:22:02.392Z,101503.45
2024-05-09T12:25:33.912Z,101502.02
2024-05-09T12:28:59.630Z,101498.64
2024-05-09T12:32:26.458Z,101493.05
2024-05-09T12:47:58.939Z,101474.44
2024-05-09T12:55:41.384Z,101462.11
2024-05-09T12:59:13.365Z,101450.93
2024-05-09T13:02:35.581Z,101449.63
2024-05-09T13:13:35.393Z,101442.46
2024-05-09T13:17:06.865Z,101445.45
2024-05-09T13:20:32.905Z,101444.74
2024-05-09T13:24:02.521Z,101442.59
2024-05-09T13:27:32.864Z,101437.21
2024-05-09T13:30:45.802Z,101436.69
2024-05-09T13:34:05.943Z,101430.54
2024-05-09T13:37:18.941Z,101421.66
2024-05-09T13:40:46.995Z,101410.70
2024-05-09T13:44:16.563Z,101406.26
2024-05-09T13:47:54.955Z,101401.23
2024-05-09T13:51:26.906Z,101387.58
2024-05-09T13:54:54.419Z,101381.05
2024-05-09T13:58:33.814Z,101379.52
2024-05-09T14:02:06.060Z,101378.77
2024-05-09T14:09:38.777Z,101366.67
2024-05-09T14:13:11.012Z,101362.77
2024-05-09T14:20:27.227Z,101354.80
2024-05-09T14:23:58.116Z,101348.45
2024-05-09T14:27:25.510Z,101339.25
2024-05-09T14:30:52.933Z,101331.46
2024-05-09T14:34:25.328Z,101325.69
2024-05-09T14:37:46.281Z,101320.45
2024-05-09T14:45:04.604Z,101301.23
2024-05-09T14:52:14.359Z,101286.48
2024-05-09T14:55:43.121Z,101280.90
2024-05-09T15:03:03.342Z,101270.44
2024-05-09T15:06:32.959Z,101264.81
2024-05-09T15:10:01.510Z,101256.05
2024-05-09T15:13:30.192Z,101254.83
2024-05-09T15:16:50.544Z,101251.21
2024-05-09T15:20:17.293Z,101241.12
2024-05-09T15:23:47.610Z,101238.43
2024-05-09T15:27:13.799Z,101230.73
2024-05-09T15:30:31.041Z,101222.80
2024-05-09T15:34:06.257Z,101215.80
2024-05-09T15:37:33.981Z,101219.38
2024-05-09T15:41:02.508Z,101216.61
2024-05-09T15:44:30.590Z,101212.98
2024-05-09T15:47:52.125Z,101210.80
2024-05-09T15:51:20.593Z,101208.30
2024-05-09T15:54:48.044Z,101208.94
2024-05-09T15:58:13.415Z,101208.08
2024-05-09T16:01:41.012Z,101205.41
2024-05-09T16:05:08.803Z,101199.93
2024-05-09T16:08:29.073Z,101196.01
2024-05-09T16:11:59.676Z,101193.63
2024-05-09T16:15:26.215Z,101189.58
2024-05-09T16:18:35.213Z,101181.96
2024-05-09T16:22:02.699Z,101177.64
2024-05-09T16:25:37.154Z,101174.97
2024-05-09T16:29:06.902Z,101170.52
2024-05-09T16:32:32.741Z,101168.29
2024-05-09T16:36:13.884Z,101163.84
2024-05-09T16:39:45.900Z,101167.52
2024-05-09T16:43:13.608Z,101166.21
2024-05-09T16:46:33.539Z,101160.04
2024-05-09T16:49:59.649Z,101156.16
2024-05-09T16:53:27.810Z,101153.79
2024-05-09T17:00:45.710Z,101148.22
2024-05-09T17:03:56.285Z,101146.40
2024-05-09T17:07:17.662Z,101149.08
2024-05-09T17:10:38.172Z,101148.61
2024-05-09T17:14:07.972Z,101144.61
2024-05-09T17:17:38.705Z,101140.11
2024-05-09T17:21:05.538Z,101141.92
2024-05-09T17:24:25.687Z,101139.09
2024-05-09T17:27:45.751Z,101135.56
2024-05-09T17:30:52.141Z,101130.08
2024-05-09T17:34:19.736Z,101127.35
2024-05-09T17:37:35.799Z,101126.26
2024-05-09T17:40:57.104Z,101120.52
2024-05-09T17:44:16.882Z,101121.60
2024-05-09T17:47:35.861Z,101120.62
2024-05-09T17:51:03.274Z,101122.25
2024-05-09T17:54:15.840Z,101121.29
2024-05-09T17:57:41.947Z,101120.17
2024-05-09T18:01:09.597Z,101117.30
2024-05-09T18:04:31.787Z,101117.94
2024-05-09T18:07:40.911Z,101116.80
2024-05-09T18:10:50.684Z,101116.03
2024-05-09T18:14:19.711Z,101117.07
2024-05-09T18:21:04.251Z,101118.36
2024-05-09T18:24:24.714Z,101123.77
2024-05-09T18:27:46.261Z,101120.42
2024-05-09T18:31:04.298Z,101122.39
2024-05-09T18:34:30.966Z,101123.23
2024-05-09T18:41:37.410Z,101123.84
2024-05-09T18:44:31.096Z,101118.86
2024-05-09T18:47:58.614Z,101115.91
2024-05-09T18:51:26.536Z,101116.60
2024-05-09T18:54:53.817Z,101115.36
2024-05-09T18:58:21.363Z,101119.55
2024-05-09T19:01:40.611Z,101116.29
2024-05-09T19:05:03.314Z,101119.13
2024-05-09T19:08:29.305Z,101121.78
2024-05-09T19:12:01.854Z,101121.23
2024-05-09T19:15:04.625Z,101118.54
2024-05-09T19:18:31.200Z,101117.90
2024-05-09T19:22:03.863Z,101115.89
2024-05-09T19:25:30.361Z,101113.69
2024-05-09T19:28:59.808Z,101106.17
2024-05-09T19:32:12.291Z,101108.81
2024-05-09T19:35:40.114Z,101107.39
2024-05-09T19:39:07.573Z,101109.65
2024-05-09T19:42:40.960Z,101113.27
2024-05-09T19:50:10.735Z,101106.03
2024-05-09T19:53:34.924Z,101109.75
2024-05-09T19:57:06.872Z,101104.64
2024-05-09T20:00:17.885Z,101102.08
2024-05-09T20:03:54.456Z,101104.84
2024-05-09T20:07:20.837Z,101104.06
2024-05-09T20:10:33.289Z,101097.78
2024-05-09T20:14:03.677Z,101096.11
2024-05-09T20:17:31.018Z,101095.02
2024-05-09T20:20:59.750Z,101089.95
2024-05-09T20:24:17.228Z,101089.77
2024-05-09T20:27:27.672Z,101089.38
2024-05-09T20:30:52.741Z,101090.40
2024-05-09T20:34:11.506Z,101090.51
2024-05-09T20:37:40.707Z,101086.81
2024-05-09T20:40:45.959Z,101091.41
2024-05-09T20:44:03.946Z,101092.52
2024-05-09T20:47:28.778Z,101093.80
2024-05-09T20:50:51.472Z,101088.67
2024-05-09T20:54:10.572Z,101087.92
2024-05-09T20:57:28.236Z,101090.17
2024-05-09T21:00:46.533Z,101085.83
2024-05-09T21:04:13.008Z,101086.41
2024-05-09T21:07:28.116Z,101082.89
2024-05-09T21:10:42.060Z,101085.30
2024-05-09T21:13:47.109Z,101083.34
2024-05-09T21:16:54.872Z,101081.13
2024-05-09T21:20:20.192Z,101077.02
2024-05-09T21:23:46.319Z,101075.34
2024-05-09T21:27:10.396Z,101076.63
2024-05-09T21:30:42.023Z,101078.27
2024-05-09T21:34:10.726Z,101078.10
2024-05-09T21:37:30.777Z,101075.42
2024-05-09T21:40:56.821Z,101074.64
2024-05-09T21:44:29.483Z,101062.90
2024-05-09T21:48:04.855Z,101063.13
2024-05-09T21:51:32.549Z,101055.32
2024-05-09T21:55:05.273Z,101052.08
2024-05-09T21:58:32.718Z,101049.18
2024-05-09T22:02:05.795Z,101047.16
2024-05-09T22:05:34.027Z,101043.21
2024-05-09T22:09:02.461Z,101040.00
2024-05-09T22:12:34.966Z,101036.82
2024-05-09T22:16:19.836Z,101030.90
2024-05-09T22:19:40.286Z,101027.27
2024-05-09T22:23:09.098Z,101023.20
2024-05-09T22:26:40.287Z,101017.63
2024-05-09T22:30:11.771Z,101011.19
2024-05-09T22:33:44.703Z,101007.79
2024-05-09T22:37:13.713Z,101003.06
2024-05-09T22:40:47.654Z,101001.06
2024-05-09T22:44:21.058Z,100997.09
2024-05-09T22:47:48.609Z,100985.41
2024-05-09T22:51:17.200Z,100982.77
2024-05-09T22:54:44.584Z,100980.08
2024-05-09T22:58:18.131Z,100979.10
2024-05-09T23:01:46.895Z,100971.94
2024-05-09T23:05:18.223Z,100966.98
2024-05-09T23:08:45.622Z,100969.84
2024-05-09T23:12:28.900Z,100965.05
2024-05-09T23:16:03.479Z,100966.67
2024-05-09T23:19:34.429Z,100963.85
2024-05-09T23:23:04.757Z,100962.33
2024-05-09T23:26:33.504Z,100961.50
2024-05-09T23:30:03.463Z,100957.80
2024-05-09T23:33:51.777Z,100948.67
2024-05-09T23:37:25.528Z,100948.33
2024-05-09T23:40:40.236Z,100946.17
2024-05-09T23:44:10.270Z,100941.04
2024-05-09T23:47:42.662Z,100936.77
2024-05-09T23:51:10.772Z,100930.22
2024-05-09T23:54:29.083Z,100923.65
2024-05-09T23:57:50.154Z,100923.85
